createdAt,value
2018-08-27T04:29:05.386Z,1.90
2018-08-27T04:48:45.947Z,1.90
2018-08-27T04:51:13.990Z,1.67
2018-08-27T04:56:09.452Z,1.75
2018-08-27T04:58:40.276Z,2.00
2018-08-27T05:01:08.334Z,2.00
2018-08-27T05:03:36.341Z,1.87
2018-08-27T05:06:04.400Z,2.07
2018-08-27T05:08:32.521Z,2.30
2018-08-27T05:11:00.554Z,2.00
2018-08-27T05:13:28.603Z,1.80
2018-08-27T05:15:56.853Z,2.03
2018-08-27T05:18:24.917Z,1.87
2018-08-27T05:20:52.952Z,1.70
2018-08-27T05:23:20.986Z,1.90
2018-08-27T05:25:49.039Z,1.93
2018-08-27T05:28:17.094Z,1.97
2018-08-27T05:30:45.148Z,1.80
2018-08-27T05:33:13.170Z,1.77
2018-08-27T05:35:41.207Z,2.03
2018-08-27T05:38:09.233Z,2.13
2018-08-27T05:40:37.279Z,2.47
2018-08-27T05:43:05.392Z,2.20
2018-08-27T05:45:33.530Z,2.13
2018-08-27T05:48:01.565Z,2.40
2018-08-27T05:50:29.607Z,2.13
2018-08-27T05:52:57.641Z,2.33
2018-08-27T05:55:25.670Z,2.10
2018-08-27T05:57:53.706Z,2.30
2018-08-27T06:00:21.738Z,2.07
2018-08-27T06:02:49.765Z,2.27
2018-08-27T06:05:17.802Z,2.27
2018-08-27T06:07:45.848Z,2.53
2018-08-27T06:10:13.875Z,2.17
2018-08-27T06:12:41.913Z,1.83
2018-08-27T06:15:10.498Z,2.30
2018-08-27T06:17:38.558Z,2.23
2018-08-27T06:20:06.937Z,2.40
2018-08-27T06:22:34.958Z,2.13
2018-08-27T06:25:03.063Z,2.50
2018-08-27T06:42:15.366Z,1.57
2018-08-27T06:44:43.434Z,1.70
2018-08-27T06:47:11.453Z,1.40
2018-08-27T06:49:39.502Z,1.57
2018-08-27T06:52:07.543Z,1.33
2018-08-27T06:54:35.583Z,1.30
2018-08-27T07:24:05.503Z,1.20
2018-08-27T07:26:33.534Z,1.00
2018-08-27T07:29:01.581Z,1.30
2018-08-27T07:31:29.613Z,1.00
2018-08-27T07:33:57.642Z,1.03
2018-08-27T07:36:25.705Z,1.30
2018-08-27T07:38:53.723Z,1.10
2018-08-27T07:41:21.766Z,1.30
2018-08-27T07:46:17.247Z,1.23
2018-08-27T07:48:45.306Z,1.27
2018-08-27T07:51:14.337Z,1.00
2018-08-27T07:53:42.302Z,1.00
2018-08-27T07:56:10.339Z,1.30
2018-08-27T07:58:38.386Z,1.20
2018-08-27T08:01:06.540Z,1.10
2018-08-27T08:03:34.574Z,1.10
2018-08-27T08:06:02.607Z,1.17
2018-08-27T08:08:30.638Z,1.10
2018-08-27T08:10:58.678Z,1.17
2018-08-27T08:13:26.737Z,1.10
2018-08-27T08:18:22.153Z,1.20
2018-08-27T08:30:40.745Z,1.30
2018-08-27T08:35:36.182Z,1.40
2018-08-27T08:47:53.777Z,1.60
2018-08-27T09:05:06.989Z,1.40
2018-08-27T09:17:24.601Z,1.30
2018-08-27T09:19:52.628Z,1.30
2018-08-27T09:44:27.430Z,1.90
2018-08-27T09:54:17.830Z,1.77
2018-08-27T10:01:44.910Z,1.53
2018-08-27T10:04:12.948Z,1.70
2018-08-27T10:06:40.985Z,1.63
2018-08-27T10:14:03.830Z,1.50
2018-08-27T10:18:59.250Z,1.50
2018-08-27T10:26:22.131Z,1.50
2018-08-27T10:31:17.522Z,1.60
2018-08-27T10:33:45.567Z,1.30
2018-08-27T10:36:13.594Z,1.40
2018-08-27T10:46:03.801Z,1.50
2018-08-27T10:48:31.847Z,1.43
2018-08-27T10:50:59.870Z,1.20
2018-08-27T10:58:22.741Z,1.37
2018-08-27T11:00:50.729Z,1.40
2018-08-27T11:03:18.770Z,1.20
2018-08-27T11:13:08.978Z,1.25
2018-08-27T11:25:26.566Z,1.50
2018-08-27T11:32:49.461Z,1.40
2018-08-27T11:35:17.435Z,1.60
2018-08-27T11:37:45.484Z,1.32
2018-08-27T11:40:13.530Z,1.47
2018-08-27T11:42:43.165Z,1.40
2018-08-27T11:47:38.734Z,1.60
2018-08-27T11:50:07.685Z,1.47
2018-08-27T11:52:35.750Z,1.30
2018-08-27T11:57:31.198Z,1.20
2018-08-27T12:02:27.139Z,1.35
2018-08-27T12:04:55.191Z,1.45
2018-08-27T12:07:23.215Z,1.30
2018-08-27T12:09:51.283Z,1.30
2018-08-27T12:12:19.318Z,1.60
2018-08-27T12:19:42.491Z,1.13
2018-08-27T12:24:37.914Z,1.20
2018-08-27T12:32:00.762Z,1.30
2018-08-27T12:39:23.569Z,1.10
2018-08-27T12:41:51.611Z,1.20
2018-08-27T12:44:19.666Z,1.10
2018-08-27T12:46:47.711Z,1.25
2018-08-27T12:51:43.138Z,1.12
2018-08-27T13:06:28.252Z,1.32
2018-08-27T13:11:23.768Z,1.20
2018-08-27T13:13:51.719Z,0.90
2018-08-27T13:23:47.524Z,1.80
2018-08-27T13:33:37.726Z,1.40
2018-08-27T13:38:33.182Z,1.85
2018-08-27T14:15:24.790Z,1.57
2018-08-27T14:22:47.700Z,1.80
2018-08-27T14:32:37.922Z,1.60
2018-08-27T14:35:05.907Z,1.60
2018-08-27T14:40:01.335Z,1.60
2018-08-27T14:54:46.278Z,1.50
2018-08-27T15:02:09.138Z,1.32
2018-08-27T15:08:43.651Z,2.60
2018-08-27T15:11:11.990Z,1.07
2018-08-27T15:13:40.030Z,1.50
2018-08-27T15:16:08.070Z,1.20
2018-08-27T15:18:36.097Z,1.47
2018-08-27T15:21:04.139Z,1.40
2018-08-27T15:23:32.271Z,1.40
2018-08-27T15:26:00.203Z,1.45
2018-08-27T15:30:55.628Z,1.32
2018-08-27T15:33:23.674Z,1.30
2018-08-27T15:35:51.706Z,1.40
2018-08-27T15:38:19.755Z,1.30
2018-08-27T15:40:47.790Z,1.20
2018-08-27T15:43:15.899Z,1.05
2018-08-27T15:46:51.973Z,1.20
2018-08-27T15:49:20.026Z,1.10
2018-08-27T15:51:48.083Z,1.70
2018-08-27T15:54:16.123Z,1.45
2018-08-27T15:59:11.554Z,1.30
2018-08-27T16:01:39.598Z,1.30
2018-08-27T16:04:07.663Z,1.20
2018-08-27T16:09:03.094Z,1.20
2018-08-27T16:11:31.131Z,1.27
2018-08-27T16:18:53.953Z,1.87
2018-08-27T16:21:21.970Z,1.70
2018-08-27T16:26:17.398Z,1.85
2018-08-27T16:31:12.815Z,1.75
2018-08-27T16:36:08.250Z,1.50
2018-08-27T16:48:26.247Z,1.60
2018-08-27T16:50:54.283Z,1.30
2018-08-27T16:53:22.314Z,1.37
2018-08-27T16:55:50.379Z,1.30
2018-08-27T17:03:13.774Z,1.20
2018-08-27T17:05:41.820Z,1.35
2018-08-27T17:08:09.847Z,1.30
2018-08-27T17:10:37.886Z,1.60
2018-08-27T17:13:05.918Z,1.50
2018-08-27T17:18:01.371Z,1.20
2018-08-27T17:30:18.965Z,1.60
2018-08-27T17:59:48.870Z,1.63
2018-08-27T18:02:16.906Z,1.55
2018-08-27T18:04:44.992Z,1.30
2018-08-27T18:07:13.022Z,1.40
2018-08-27T18:09:41.095Z,1.60
2018-08-27T18:12:09.130Z,1.30
2018-08-27T18:14:37.196Z,1.70
2018-08-27T18:17:05.314Z,1.63
2018-08-27T18:19:33.491Z,1.60
2018-08-27T18:22:01.720Z,2.00
2018-08-27T18:29:24.730Z,1.20
2018-08-27T18:31:52.854Z,1.50
2018-08-27T18:36:48.303Z,1.40
2018-08-27T18:41:43.739Z,1.60
2018-08-27T18:44:11.827Z,1.20
2018-08-27T18:46:39.853Z,1.50
2018-08-27T18:49:07.914Z,1.25
2018-08-27T18:54:03.326Z,1.60
2018-08-27T19:03:59.118Z,1.40
2018-08-27T19:06:27.174Z,1.30
2018-08-27T19:11:22.796Z,1.60
2018-08-27T19:13:50.818Z,1.50
2018-08-27T19:16:18.847Z,1.37
2018-08-27T19:18:46.974Z,1.50
2018-08-27T19:21:15.030Z,1.40
2018-08-27T19:23:43.107Z,1.30
2018-08-27T19:26:11.153Z,1.23
2018-08-27T19:28:39.189Z,1.47
2018-08-27T19:31:07.380Z,1.30
2018-08-27T19:36:02.991Z,1.13
2018-08-27T19:38:30.854Z,1.33
2018-08-27T19:40:59.094Z,1.23
2018-08-27T19:43:26.953Z,1.40
2018-08-27T19:45:55.011Z,1.10
2018-08-27T19:48:23.050Z,1.20
2018-08-27T19:50:51.135Z,1.37
2018-08-27T19:53:19.148Z,1.20
2018-08-27T19:58:14.910Z,1.17
2018-08-27T20:00:42.934Z,1.40
2018-08-27T20:03:10.958Z,1.20
2018-08-27T20:05:39.002Z,1.20
2018-08-27T20:10:34.550Z,1.20
2018-08-27T20:13:02.570Z,1.07
2018-08-27T20:15:30.638Z,1.40
2018-08-27T20:17:58.688Z,1.57
2018-08-27T20:20:26.854Z,1.30
2018-08-27T20:22:54.882Z,1.35
2018-08-27T20:27:50.366Z,1.50
2018-08-27T20:30:18.426Z,1.77
2018-08-27T20:32:46.470Z,1.63
2018-08-27T20:40:09.326Z,1.47
2018-08-27T20:42:37.369Z,1.20
2018-08-27T20:45:06.104Z,1.50
2018-08-27T20:47:34.110Z,1.40
2018-08-27T21:02:19.770Z,1.70
2018-08-27T21:17:08.529Z,1.50
2018-08-27T21:19:36.577Z,1.70
2018-08-27T21:22:04.842Z,1.73
2018-08-27T21:24:33.879Z,1.60
2018-08-27T21:29:29.361Z,1.77
2018-08-27T21:31:57.409Z,1.80
2018-08-27T21:34:25.454Z,1.97
2018-08-27T21:36:53.650Z,1.60
2018-08-27T21:39:22.210Z,1.70
2018-08-27T21:41:50.259Z,1.80
2018-08-27T21:44:18.357Z,1.90
2018-08-27T21:46:47.163Z,2.40
2018-08-27T21:49:15.150Z,3.13
2018-08-27T21:51:43.187Z,2.80
2018-08-27T21:56:38.632Z,12.47
2018-08-27T21:59:06.686Z,13.13
2018-08-27T22:01:34.747Z,7.13
2018-08-27T22:04:08.351Z,3.30
2018-08-27T22:06:36.370Z,3.97
2018-08-27T22:13:59.538Z,3.03
2018-08-27T22:16:27.574Z,2.57
2018-08-27T22:18:55.609Z,3.27
2018-08-27T22:21:23.647Z,3.00
2018-08-27T22:23:51.694Z,2.80
2018-08-27T22:26:19.754Z,2.30
2018-08-27T22:28:47.779Z,2.40
2018-08-27T22:31:15.903Z,2.93
2018-08-27T22:33:43.922Z,2.13
2018-08-27T22:36:12.030Z,2.40
2018-08-27T22:38:40.077Z,2.30
2018-08-27T22:41:11.237Z,2.40
2018-08-27T22:43:39.264Z,2.20
2018-08-27T22:46:07.274Z,2.10
2018-08-27T22:48:35.304Z,2.50
2018-08-27T22:51:03.361Z,2.40
2018-08-27T22:53:31.387Z,2.30
2018-08-27T22:55:59.418Z,1.97
2018-08-27T22:58:27.983Z,2.30
2018-08-27T23:00:55.990Z,2.67
2018-08-27T23:03:29.594Z,2.37
2018-08-27T23:05:57.634Z,2.40
2018-08-27T23:08:25.662Z,2.13
2018-08-27T23:25:39.476Z,2.23
2018-08-27T23:28:07.507Z,2.40
2018-08-27T23:45:20.075Z,2.30
2018-08-27T23:50:15.502Z,1.90
